Skip to main content

NOAA/GLERL Met Station at Chicago, IL

Previous 5 days (top of hour only)
See also Previous 3 Hours (2 minute increments)
Jump down to Data
Switch to [English][Metric]
Zoom: Click and drag, Pan: shift-click and drag, Unzoom: double-click, Unzoom All




Note: Speed = mean wind during 2-minute period at top of hour,
Gust = max wind during 2-minute period at top of hour,
Peak = max wind during entire hour.
• See also 5-day windrose plot


NOAA/GLERL Met Station at Chicago, IL

Previous 5 days (top of hour only)
See also Previous 3 Hours (2 minute increments)
Jump up to Graphs
Switch to [English][Metric]
                  Wind  Wind  Wind   Air   Dew   Rel
                   Spd   Gst   Dir  Temp    Pt   Hum
YYYY-MM-DD   CST   m/s   m/s   deg     C     C     %
2018-11-17 05:00   1.6   2.0   304   2.5  -0.2  82.5
2018-11-17 04:00   2.0   2.3   282   2.4  -0.5  81.4
2018-11-17 03:00   2.5   3.0   320   2.3  -0.5  82.0
2018-11-17 02:00   3.7   4.0   344   2.3  -1.1  78.0
2018-11-17 01:00   4.0   4.4   301   2.1  -1.0  80.1
2018-11-17 00:00   5.1   5.6   300   2.4  -1.2  77.2
2018-11-16 23:00   5.5   6.1   271   2.6  -0.6  79.4
2018-11-16 22:00   5.4   6.2   276   2.7  -1.0  76.3
2018-11-16 21:00   4.6   5.0   295   2.9  -0.9  75.8
2018-11-16 20:00   5.0   5.9   254   3.1  -0.8  75.6
2018-11-16 19:00   4.3   5.4   276   3.5  -0.2  76.9
2018-11-16 18:00   6.8   7.5   279   3.5  -0.5  75.2
2018-11-16 17:00   8.0   9.2   289   3.8  -0.2  75.1
2018-11-16 16:00   9.7  10.3   278   4.4   0.2  74.0
2018-11-16 15:00   6.8   7.8   285   5.0  -0.4  67.8
2018-11-16 14:00   6.5   7.9   287   5.1   0.2  70.3
2018-11-16 13:00   9.5  10.8   302   4.7   0.3  73.2
2018-11-16 12:00  10.7  11.6   300   4.5  -0.1  72.2
2018-11-16 11:00  11.2  13.5   318   4.5   0.1  73.3
2018-11-16 10:00  11.1  12.1   300   4.7   0.4  73.4
2018-11-16 09:00   9.7  10.6   284   4.2   0.6  77.3
2018-11-16 08:00   9.4  10.7   286   3.2   0.5  82.5
2018-11-16 07:00   8.9   9.9   273   2.2  -0.1  84.9
2018-11-16 06:00   8.4  10.1   263   1.1  -1.0  86.1
2018-11-16 05:00   7.0   8.6   237   0.4  -3.0  77.7
2018-11-16 03:00   9.1  10.6   193  -0.7  -3.6  80.8
2018-11-16 02:00  10.7  11.6   193  -0.7  -3.3  82.8
2018-11-16 01:00   9.2  10.2   204  -0.4  -2.6  84.9
2018-11-16 00:00  10.6  11.6   197  -0.6  -2.5  86.9
2018-11-15 23:00  10.8  12.1   208  -0.2  -2.1  86.8
2018-11-15 22:00   9.2   9.8   213   0.5  -1.9  83.7
2018-11-15 21:00   8.5  10.3   241   0.2  -1.7  86.8
2018-11-15 20:00   9.7  10.2   210   0.8  -1.4  85.5
2018-11-15 19:00   6.0   6.7   211   1.5  -0.6  85.7
2018-11-15 18:00   4.9   6.2   253   1.7  -1.0  82.0
2018-11-15 17:00   5.8   7.1   257   1.6  -0.9  83.3
2018-11-15 16:00   4.8   5.9   241   1.5  -0.8  84.4
2018-11-15 15:00   6.7   8.2   202   1.6  -0.7  84.9
2018-11-15 14:00   4.7   5.8   200   1.7  -0.6  84.7
2018-11-15 13:00   4.2   5.1   179   1.3  -0.6  87.3
2018-11-15 12:00   4.5   5.7   173   1.2  -0.1  91.1
2018-11-15 11:00   4.8   6.7   167   1.4   0.5  93.4
2018-11-15 10:00   5.4   6.1   100   1.4   0.8  96.0
2018-11-15 09:00   5.4   6.1    84   1.0  -0.3  91.2
2018-11-15 08:00   4.8   5.8    70   1.0  -1.7  82.2
2018-11-15 07:00   4.7   5.8   108   1.6  -3.7  67.7
2018-11-15 06:00   4.6   5.3   122   1.4  -4.0  67.1
2018-11-15 05:00   6.8   8.2   129   1.3  -4.4  66.0
2018-11-15 04:00   7.1   8.2   117   1.6  -3.7  67.9
2018-11-15 03:00   7.5   9.8   113   2.0  -4.3  62.9
2018-11-15 02:00   7.4   9.2   110   1.7  -4.2  64.8
2018-11-15 01:00   9.2  10.2   132   1.6  -3.6  68.3
2018-11-15 00:00   7.5   8.4   114   2.2  -3.8  64.4
2018-11-14 23:00   5.9   7.3   116   1.8  -4.0  65.3
2018-11-14 22:00   7.3   8.3   112   2.6  -2.3  70.3
2018-11-14 21:00   7.0   8.4   113   2.7  -2.1  70.6
2018-11-14 20:00   6.9   8.2   104   1.7  -2.7  72.7
2018-11-14 19:00   4.4   5.3    57   1.2  -3.5  71.0
2018-11-14 18:00   3.7   4.3    56   0.9  -3.8  70.6
2018-11-14 17:00   2.6   3.2    34   0.7  -4.1  70.1
2018-11-14 16:00   1.1   1.8    16   0.6  -4.4  69.4
2018-11-14 15:00   1.6   2.5   359   0.5  -3.8  73.1
2018-11-14 14:00   1.1   1.4   303   0.1  -4.3  72.2
2018-11-14 13:00   1.8   2.4     6  -0.3  -4.4  74.1
2018-11-14 12:00   2.2   3.0   322  -0.9  -5.0  73.5
2018-11-14 11:00   3.9   4.6   314  -1.6  -5.6  74.2
2018-11-14 10:00   4.7   5.5   312  -2.4  -7.1  70.3
2018-11-14 09:00   4.5   5.3   290  -3.1  -8.3  67.5
2018-11-14 08:00   4.4   5.0   308  -3.6  -7.9  72.0
2018-11-14 07:00   3.4   4.5   304  -3.5  -7.7  73.0
2018-11-14 06:00   6.4   8.0   339  -3.5  -8.6  68.0
2018-11-14 05:00   7.1   8.3   315  -4.1  -8.6  71.1
2018-11-14 04:00   8.8  10.2   318  -4.3 -10.0  64.7
2018-11-14 03:00   8.1   8.9   321  -4.2 -10.4  62.0
2018-11-14 02:00   5.9   6.6   301  -4.0 -10.7  59.8
2018-11-14 01:00   6.6   8.0   311  -3.7 -10.9  57.6
2018-11-14 00:00   5.6   6.6   288  -3.5 -11.9  52.3
2018-11-13 23:00   5.5   6.6   295  -3.1 -12.2  49.5
2018-11-13 22:00   6.1   7.2   286  -2.7 -11.3  51.9
2018-11-13 21:00   5.1   6.3   290  -2.4 -11.0  51.9
2018-11-13 20:00   4.5   5.5   282  -2.4 -11.8  48.8
2018-11-13 19:00   5.8   7.3   310  -2.2 -11.4  49.4
2018-11-13 18:00   5.6   6.7   287  -2.3 -12.8  44.8
2018-11-13 17:00   6.7   7.8   285  -2.0 -12.3  45.4
2018-11-13 16:00   4.9   5.5   280  -1.7 -12.9  42.5
2018-11-13 15:00   5.0   6.4   295  -1.9 -12.6  44.0
2018-11-13 14:00   4.9   5.9   279  -2.4 -11.9  48.2
2018-11-13 13:00   3.9   5.7   320  -3.3 -13.4  45.7
2018-11-13 12:00   4.8   5.4   301  -3.8 -12.7  50.3
2018-11-13 11:00   4.6   5.8   295  -4.3 -11.5  57.5
2018-11-13 10:00   6.4   7.7   300  -5.1 -12.0  58.6
2018-11-13 09:00   9.2  10.7   319  -5.3 -10.8  65.5
2018-11-13 08:00   9.9  11.2   311  -5.3 -10.5  66.9
2018-11-13 07:00   9.5  10.5   305  -5.3 -10.7  66.2
2018-11-13 06:00   9.9  11.9   318  -4.9  -9.7  69.1
2018-11-13 05:00   9.3  10.8   311  -4.9  -9.8  68.5
2018-11-13 04:00   8.0  10.2   306  -4.7 -10.1  65.9
2018-11-13 03:00  10.9  12.5   311  -4.2 -10.2  63.3
2018-11-13 02:00   9.6  10.8   314  -3.6  -9.3  64.6
2018-11-13 01:00   9.2  10.8   323  -3.1  -9.1  63.6
2018-11-13 00:00   8.9  10.2   316  -2.6  -8.5  64.0
2018-11-12 23:00   9.0   9.9   306  -2.3  -8.5  62.8
2018-11-12 22:00   8.8   9.9   308  -1.8  -7.3  66.1
2018-11-12 21:00   8.3  10.7   317  -1.2  -6.0  69.8
2018-11-12 20:00   8.8   9.6   312  -1.3  -5.6  72.8
2018-11-12 19:00   9.3  10.6   321  -0.8  -5.2  72.4
2018-11-12 18:00   7.7   8.8   324  -0.1  -4.9  70.0